createdAt,value
2022-09-07T00:01:00.878Z,1.23
2022-09-07T00:03:28.838Z,2.83
2022-09-07T00:05:56.839Z,0.88
2022-09-07T00:08:27.255Z,1.83
2022-09-07T00:10:57.858Z,1.83
2022-09-07T00:13:28.625Z,2.88
2022-09-07T00:15:57.064Z,2.85
2022-09-07T00:18:25.636Z,1.85
2022-09-07T00:21:04.104Z,1.48
2022-09-07T00:23:33.280Z,1.65
2022-09-07T00:26:07.356Z,1.20
2022-09-07T00:28:35.901Z,1.38
2022-09-07T00:31:04.561Z,2.25
2022-09-07T00:33:32.040Z,2.05
2022-09-07T00:35:59.580Z,1.85
2022-09-07T00:38:27.261Z,1.75
2022-09-07T00:40:54.946Z,1.10
2022-09-07T00:43:51.048Z,2.33
2022-09-07T00:46:21.804Z,1.98
2022-09-07T00:48:57.762Z,1.52
2022-09-07T00:51:28.824Z,2.50
2022-09-07T00:54:03.156Z,1.00
2022-09-07T00:56:34.923Z,2.30
2022-09-07T00:59:02.956Z,2.28
2022-09-07T01:01:31.648Z,2.77
2022-09-07T01:04:01.249Z,1.67
2022-09-07T01:06:35.172Z,1.00
2022-09-07T01:09:08.163Z,1.63
2022-09-07T01:11:36.219Z,1.85
2022-09-07T01:14:07.097Z,1.92
2022-09-07T01:16:58.534Z,3.17
2022-09-07T01:19:32.208Z,0.90
2022-09-07T01:22:24.464Z,2.42
2022-09-07T01:25:13.376Z,1.40
2022-09-07T01:28:10.508Z,1.90
2022-09-07T01:30:41.883Z,1.48
2022-09-07T01:33:27.836Z,2.25
2022-09-07T01:36:26.955Z,1.27
2022-09-07T01:39:01.889Z,0.90
2022-09-07T01:41:32.927Z,2.03
2022-09-07T01:44:17.166Z,1.35
2022-09-07T01:46:52.633Z,0.85
2022-09-07T01:49:25.439Z,1.35
2022-09-07T01:51:58.458Z,1.33
2022-09-07T01:54:39.193Z,1.73
2022-09-07T01:57:16.574Z,2.25
2022-09-07T02:00:01.167Z,2.55
2022-09-07T02:02:30.916Z,2.53
2022-09-07T02:05:13.030Z,1.85
2022-09-07T02:07:48.336Z,3.25
2022-09-07T02:10:17.563Z,1.88
2022-09-07T02:12:53.282Z,1.77
2022-09-07T02:15:27.536Z,1.27
2022-09-07T02:18:02.527Z,1.92
2022-09-07T02:20:34.684Z,2.60
2022-09-07T02:23:06.934Z,1.48
2022-09-07T02:25:43.070Z,2.55
2022-09-07T02:28:16.333Z,0.90
2022-09-07T02:30:44.505Z,1.35
2022-09-07T02:33:12.354Z,1.25
2022-09-07T02:35:40.338Z,1.65
2022-09-07T02:38:08.172Z,1.80
2022-09-07T02:40:36.176Z,2.30
2022-09-07T02:43:07.972Z,2.78
2022-09-07T02:45:46.283Z,2.33
2022-09-07T02:48:45.244Z,2.85
2022-09-07T02:51:33.842Z,2.08
2022-09-07T02:54:08.451Z,2.15
2022-09-07T02:56:50.932Z,2.42
2022-09-07T02:59:34.078Z,3.10
2022-09-07T03:02:27.160Z,2.72
2022-09-07T03:05:20.986Z,3.90
2022-09-07T03:08:05.421Z,3.63
2022-09-07T03:10:34.236Z,1.42
2022-09-07T03:15:29.355Z,1.05
2022-09-07T03:17:57.320Z,1.93
2022-09-07T03:20:25.082Z,2.78
2022-09-07T03:22:53.048Z,1.17
2022-09-07T03:25:20.858Z,3.08
2022-09-07T03:27:48.468Z,2.10
2022-09-07T03:30:16.106Z,1.20
2022-09-07T03:32:43.621Z,1.58
2022-09-07T03:35:14.288Z,3.03
2022-09-07T03:37:42.532Z,1.65
2022-09-07T03:40:12.633Z,1.85
2022-09-07T03:42:40.940Z,1.58
2022-09-07T03:45:10.028Z,2.90
2022-09-07T03:47:38.263Z,2.30
2022-09-07T03:50:06.358Z,2.92
2022-09-07T03:52:35.345Z,1.88
2022-09-07T03:57:30.854Z,2.35
2022-09-07T03:59:58.607Z,2.40
2022-09-07T04:02:26.297Z,3.22
2022-09-07T04:04:53.964Z,2.88
2022-09-07T04:07:21.746Z,1.50
2022-09-07T04:09:51.508Z,1.53
2022-09-07T04:12:19.322Z,1.40
2022-09-07T04:14:47.236Z,1.77
2022-09-07T04:17:14.861Z,2.63
2022-09-07T04:19:42.480Z,1.35
2022-09-07T04:22:10.028Z,1.90
2022-09-07T04:24:37.559Z,1.50
2022-09-07T04:27:05.404Z,1.85
2022-09-07T04:29:33.072Z,1.88
2022-09-07T04:32:00.588Z,2.00
2022-09-07T04:34:28.185Z,2.63
2022-09-07T04:36:55.764Z,1.85
2022-09-07T04:39:23.425Z,2.05
2022-09-07T04:41:50.983Z,2.17
2022-09-07T04:44:18.693Z,4.57
2022-09-07T04:46:46.222Z,2.25
2022-09-07T04:49:14.102Z,1.27
2022-09-07T04:51:44.478Z,1.17
2022-09-07T04:54:12.164Z,1.70
2022-09-07T04:56:39.631Z,1.75
2022-09-07T04:59:07.498Z,1.60
2022-09-07T05:01:35.245Z,1.20
2022-09-07T05:04:04.329Z,2.20
2022-09-07T05:06:32.548Z,1.30
2022-09-07T05:09:00.455Z,1.27
2022-09-07T05:11:29.882Z,3.80
2022-09-07T05:13:58.790Z,2.13
2022-09-07T05:16:27.315Z,2.70
2022-09-07T05:19:01.248Z,1.65
2022-09-07T05:21:31.791Z,1.42
2022-09-07T05:24:00.610Z,1.70
2022-09-07T05:26:30.402Z,1.20
2022-09-07T05:31:48.228Z,2.38
2022-09-07T05:34:31.573Z,1.33
2022-09-07T05:37:00.399Z,2.17
2022-09-07T05:39:30.295Z,2.80
2022-09-07T05:41:58.136Z,2.67
2022-09-07T05:47:13.512Z,1.73
2022-09-07T05:49:41.062Z,3.03
2022-09-07T05:52:08.635Z,0.95
2022-09-07T05:54:36.176Z,3.70
2022-09-07T05:57:03.895Z,2.00
2022-09-07T05:59:31.855Z,2.13
2022-09-07T06:02:00.057Z,1.52
2022-09-07T06:04:27.688Z,2.03
2022-09-07T06:12:30.273Z,1.15
2022-09-07T06:14:57.891Z,1.15
2022-09-07T06:17:25.452Z,1.27
2022-09-07T06:19:53.150Z,2.55
2022-09-07T06:22:21.158Z,2.30
2022-09-07T06:24:48.926Z,0.90
2022-09-07T06:27:16.730Z,2.05
2022-09-07T06:29:44.423Z,1.83
2022-09-07T06:34:59.478Z,0.65
2022-09-07T06:37:27.034Z,1.38
2022-09-07T06:39:54.830Z,1.30
2022-09-07T06:42:22.610Z,2.17
2022-09-07T06:44:50.132Z,10.60
2022-09-07T06:47:17.599Z,3.42
2022-09-07T06:49:45.075Z,2.47
2022-09-07T06:52:12.720Z,1.83
2022-09-07T06:57:28.192Z,1.23
2022-09-07T06:59:56.038Z,1.25
2022-09-07T07:02:23.706Z,2.70
2022-09-07T07:04:51.514Z,1.48
2022-09-07T07:07:19.250Z,1.55
2022-09-07T07:09:49.789Z,2.03
2022-09-07T07:14:45.123Z,2.60
2022-09-07T07:17:13.473Z,1.58
2022-09-07T07:19:41.307Z,1.13
2022-09-07T07:22:45.494Z,1.98
2022-09-07T07:24:56.756Z,2.53
2022-09-07T07:27:24.628Z,4.18
2022-09-07T07:29:55.516Z,1.33
2022-09-07T07:32:23.407Z,1.00
2022-09-07T07:34:50.892Z,1.92
2022-09-07T07:37:18.460Z,0.55
2022-09-07T07:42:35.663Z,0.85
2022-09-07T07:47:51.804Z,2.17
2022-09-07T07:50:35.246Z,1.58
2022-09-07T07:55:51.284Z,1.67
2022-09-07T07:58:19.655Z,2.70
2022-09-07T08:00:54.635Z,1.35
2022-09-07T08:03:24.600Z,1.67
2022-09-07T08:05:52.839Z,0.90
2022-09-07T08:08:21.331Z,0.93
2022-09-07T08:10:48.957Z,1.48
2022-09-07T08:13:17.141Z,0.98
2022-09-07T08:15:45.344Z,1.02
2022-09-07T08:18:13.934Z,0.87
2022-09-07T08:20:41.957Z,6.65
2022-09-07T08:23:09.666Z,1.80
2022-09-07T08:25:37.257Z,1.38
2022-09-07T08:28:05.514Z,0.63
2022-09-07T08:30:33.112Z,2.83
2022-09-07T08:33:00.842Z,1.60
2022-09-07T08:35:28.320Z,0.57
2022-09-07T08:37:56.031Z,2.22
2022-09-07T08:40:23.527Z,1.48
2022-09-07T08:42:54.175Z,1.05
2022-09-07T08:45:29.836Z,3.50
2022-09-07T08:47:58.321Z,1.08
2022-09-07T08:50:43.787Z,3.08
2022-09-07T08:53:16.442Z,1.20
2022-09-07T08:55:43.902Z,2.53
2022-09-07T08:58:48.291Z,2.00
2022-09-07T09:01:37.026Z,3.85
2022-09-07T09:04:16.744Z,3.85
2022-09-07T09:07:02.876Z,2.10
2022-09-07T09:09:49.135Z,1.13
2022-09-07T09:12:36.864Z,1.60
2022-09-07T09:15:21.218Z,0.93
2022-09-07T09:17:57.438Z,1.67
2022-09-07T09:20:50.416Z,0.45
2022-09-07T09:23:19.922Z,1.10
2022-09-07T09:26:01.329Z,0.90
2022-09-07T09:28:31.835Z,2.38
2022-09-07T09:31:00.281Z,1.42
2022-09-07T09:33:29.096Z,2.65
2022-09-07T09:35:59.933Z,1.27
2022-09-07T09:38:30.437Z,2.33
2022-09-07T09:41:11.243Z,2.17
2022-09-07T09:43:41.634Z,1.80
2022-09-07T09:46:20.721Z,1.08
2022-09-07T09:49:01.895Z,1.73
2022-09-07T09:54:29.006Z,5.78
2022-09-07T09:56:56.766Z,4.47
2022-09-07T10:05:49.293Z,3.28
2022-09-07T10:08:22.932Z,1.58
2022-09-07T10:11:12.468Z,0.63
2022-09-07T10:13:53.225Z,1.00
2022-09-07T10:16:38.389Z,1.67
2022-09-07T10:19:06.135Z,3.63
2022-09-07T10:21:33.665Z,0.60
2022-09-07T10:24:23.352Z,1.30
2022-09-07T10:26:51.665Z,1.92
2022-09-07T10:29:30.826Z,0.47
2022-09-07T10:32:10.370Z,0.47
2022-09-07T10:35:02.564Z,2.55
2022-09-07T10:37:35.651Z,0.65
2022-09-07T10:40:22.957Z,2.03
2022-09-07T10:46:56.173Z,2.03
2022-09-07T10:49:12.815Z,2.97
2022-09-07T10:52:04.971Z,2.03
2022-09-07T10:54:54.029Z,1.38
2022-09-07T10:57:24.848Z,1.45
2022-09-07T11:00:12.476Z,2.80
2022-09-07T11:06:25.276Z,1.25
2022-09-07T11:12:02.989Z,1.98
2022-09-07T11:14:52.947Z,2.75
2022-09-07T11:17:29.747Z,0.80
2022-09-07T11:20:13.833Z,1.92
2022-09-07T11:22:54.329Z,0.95
2022-09-07T11:25:29.610Z,1.15
2022-09-07T11:28:07.760Z,0.60
2022-09-07T11:30:42.716Z,1.70
2022-09-07T11:33:20.826Z,1.85
2022-09-07T11:35:58.738Z,1.07
2022-09-07T11:38:34.578Z,1.02
2022-09-07T11:41:23.370Z,3.08
2022-09-07T11:44:31.572Z,0.93
2022-09-07T11:47:05.435Z,2.22
2022-09-07T11:49:33.213Z,1.55
2022-09-07T11:52:24.053Z,1.55
2022-09-07T11:54:59.897Z,3.40
2022-09-07T11:57:55.867Z,2.50
2022-09-07T12:00:31.248Z,0.98
2022-09-07T12:03:00.245Z,1.70
2022-09-07T12:05:58.481Z,0.40
2022-09-07T12:08:32.011Z,0.82
2022-09-07T12:11:37.431Z,0.90
2022-09-07T12:14:29.665Z,1.38
2022-09-07T12:17:19.118Z,1.30
2022-09-07T12:20:10.223Z,1.23
2022-09-07T12:23:04.216Z,1.05
2022-09-07T12:25:34.433Z,1.80
2022-09-07T12:28:02.385Z,1.27
2022-09-07T12:30:30.739Z,2.15
2022-09-07T12:33:20.229Z,3.08
2022-09-07T12:35:47.932Z,1.17
2022-09-07T12:38:18.671Z,4.78
2022-09-07T12:40:48.681Z,1.05
2022-09-07T12:43:16.357Z,1.60
2022-09-07T12:45:43.972Z,1.52
2022-09-07T12:48:17.557Z,0.70
2022-09-07T12:51:16.481Z,1.60
2022-09-07T12:54:07.120Z,0.68
2022-09-07T13:00:17.854Z,0.88
2022-09-07T13:03:05.810Z,1.33
2022-09-07T13:05:55.459Z,2.15
2022-09-07T13:08:41.410Z,1.10
2022-09-07T13:11:39.360Z,2.63
2022-09-07T13:14:16.309Z,2.17
2022-09-07T13:19:46.117Z,10.15
2022-09-07T13:22:32.213Z,8.40
2022-09-07T13:25:23.731Z,5.50
2022-09-07T13:27:58.411Z,3.10
2022-09-07T13:30:38.052Z,7.53
2022-09-07T13:33:23.863Z,3.05
2022-09-07T13:36:02.111Z,1.33
2022-09-07T13:38:32.432Z,3.88
2022-09-07T13:41:12.867Z,4.32
2022-09-07T13:43:40.662Z,3.00
2022-09-07T13:46:17.627Z,1.73
2022-09-07T13:49:00.897Z,1.55
2022-09-07T13:51:48.761Z,2.97
2022-09-07T13:54:26.926Z,2.10
2022-09-07T13:57:24.427Z,1.45
2022-09-07T13:59:52.485Z,1.02
2022-09-07T14:02:33.489Z,1.45
2022-09-07T14:05:01.887Z,1.58
2022-09-07T14:07:31.511Z,2.70
2022-09-07T14:10:05.183Z,2.63
2022-09-07T14:12:42.598Z,2.45
2022-09-07T14:15:44.182Z,3.78
2022-09-07T14:18:14.241Z,3.25
2022-09-07T14:20:45.739Z,1.70
2022-09-07T14:23:21.675Z,0.90
2022-09-07T14:26:21.527Z,1.80
2022-09-07T14:28:51.957Z,2.15
2022-09-07T14:31:21.221Z,1.33
2022-09-07T14:33:55.263Z,2.50
2022-09-07T14:36:47.465Z,1.98
2022-09-07T14:39:18.564Z,2.47
2022-09-07T14:41:47.222Z,1.60
2022-09-07T14:44:31.393Z,1.73
2022-09-07T14:47:03.465Z,2.10
2022-09-07T14:49:31.246Z,2.08
2022-09-07T14:52:00.794Z,2.33
2022-09-07T14:54:34.278Z,1.95
2022-09-07T14:57:32.023Z,1.65
2022-09-07T15:00:29.643Z,1.50
2022-09-07T15:02:57.346Z,3.13
2022-09-07T15:05:29.439Z,1.45
2022-09-07T15:07:59.410Z,4.10
2022-09-07T15:10:29.100Z,1.85
2022-09-07T15:12:59.397Z,3.38
2022-09-07T15:15:37.150Z,3.13
2022-09-07T15:18:26.815Z,1.83
2022-09-07T15:20:54.691Z,5.05
2022-09-07T15:23:22.441Z,4.10
2022-09-07T15:25:53.663Z,1.98
2022-09-07T15:34:12.864Z,1.40
2022-09-07T15:36:43.391Z,4.85
2022-09-07T15:39:25.686Z,2.22
2022-09-07T15:41:53.467Z,2.22
2022-09-07T15:44:26.084Z,1.17
2022-09-07T15:49:49.258Z,3.13
2022-09-07T15:52:18.255Z,2.53
2022-09-07T15:54:45.868Z,2.80
2022-09-07T16:00:00.903Z,3.33
2022-09-07T16:05:16.807Z,4.72
2022-09-07T16:10:32.015Z,2.08
2022-09-07T16:13:09.697Z,2.83
2022-09-07T16:15:46.185Z,2.78
2022-09-07T16:18:18.082Z,3.58
2022-09-07T16:20:46.298Z,3.20
2022-09-07T16:23:16.543Z,2.23
2022-09-07T16:25:59.023Z,2.80
2022-09-07T16:28:27.027Z,3.75
2022-09-07T16:30:55.997Z,2.60
2022-09-07T16:33:32.734Z,2.92
2022-09-07T16:36:07.143Z,3.88
2022-09-07T16:38:50.903Z,6.80
2022-09-07T16:41:31.536Z,4.03
2022-09-07T16:44:05.140Z,4.57
2022-09-07T16:46:56.559Z,2.85
2022-09-07T16:49:30.777Z,3.22
2022-09-07T16:52:01.093Z,3.03
2022-09-07T16:55:06.977Z,3.42
2022-09-07T17:01:01.025Z,1.83
2022-09-07T17:03:28.765Z,3.67
2022-09-07T17:05:56.502Z,4.80
2022-09-07T17:08:24.240Z,4.82
2022-09-07T17:10:52.367Z,3.63
2022-09-07T17:13:20.278Z,3.33
2022-09-07T17:15:48.105Z,5.55
2022-09-07T17:18:16.265Z,6.63
2022-09-07T17:20:43.963Z,7.30
2022-09-07T17:23:11.639Z,8.45
2022-09-07T17:25:39.119Z,8.82
2022-09-07T17:28:06.792Z,5.72
2022-09-07T17:30:34.856Z,6.97
2022-09-07T17:33:02.558Z,7.83
2022-09-07T17:35:35.334Z,4.72
2022-09-07T17:39:14.204Z,4.90
2022-09-07T17:40:52.639Z,4.95
2022-09-07T17:46:41.343Z,6.03
2022-09-07T17:49:12.299Z,5.13
2022-09-07T17:51:40.019Z,4.90
2022-09-07T17:54:11.736Z,6.55
2022-09-07T17:56:41.129Z,7.88
2022-09-07T18:01:57.756Z,6.18
2022-09-07T18:04:25.951Z,6.47
2022-09-07T18:06:54.404Z,5.67
2022-09-07T18:09:22.263Z,5.72
2022-09-07T18:11:50.721Z,7.55
2022-09-07T18:14:19.345Z,7.35
2022-09-07T18:16:49.795Z,6.37
2022-09-07T18:19:19.011Z,6.40
2022-09-07T18:21:47.995Z,5.55
2022-09-07T18:24:19.035Z,5.93
2022-09-07T18:26:51.291Z,5.72
2022-09-07T18:29:36.767Z,6.47
2022-09-07T18:32:09.525Z,7.22
2022-09-07T18:35:32.138Z,7.90
2022-09-07T18:38:01.519Z,8.50
2022-09-07T18:40:29.387Z,5.85
2022-09-07T18:42:57.535Z,7.43
2022-09-07T18:45:28.481Z,5.47
2022-09-07T18:47:56.533Z,6.53
2022-09-07T18:50:24.660Z,5.68
2022-09-07T18:52:53.017Z,5.90
2022-09-07T18:55:21.108Z,6.68
2022-09-07T18:57:48.805Z,6.43
2022-09-07T19:00:17.995Z,7.60
2022-09-07T19:02:49.546Z,8.18
2022-09-07T19:08:05.112Z,8.15
2022-09-07T19:10:35.310Z,7.00
2022-09-07T19:13:03.562Z,7.53
2022-09-07T19:15:37.139Z,7.25
2022-09-07T19:18:07.146Z,6.40
2022-09-07T19:20:35.938Z,8.98
2022-09-07T19:23:04.725Z,7.35
2022-09-07T19:25:32.467Z,7.03
2022-09-07T19:28:00.468Z,6.63
2022-09-07T19:30:28.379Z,6.68
2022-09-07T19:32:57.818Z,6.20
2022-09-07T19:35:30.171Z,6.03
2022-09-07T19:37:58.153Z,6.15
2022-09-07T19:40:26.871Z,5.70
2022-09-07T19:42:54.620Z,6.38
2022-09-07T19:45:22.419Z,5.18
2022-09-07T19:47:50.726Z,5.63
2022-09-07T19:50:20.810Z,5.13
2022-09-07T19:52:48.815Z,4.18
2022-09-07T19:55:16.596Z,6.28
2022-09-07T19:57:47.711Z,6.07
2022-09-07T20:00:15.730Z,4.53
2022-09-07T20:02:43.497Z,5.35
2022-09-07T20:05:13.540Z,4.17
2022-09-07T20:07:41.213Z,3.80
2022-09-07T20:10:09.294Z,3.83
2022-09-07T20:12:36.934Z,2.50
2022-09-07T20:15:05.006Z,2.65
2022-09-07T20:17:35.351Z,3.72
2022-09-07T20:20:05.080Z,2.17
2022-09-07T20:22:33.000Z,2.80
2022-09-07T20:25:00.608Z,2.88
2022-09-07T20:27:28.284Z,4.60
2022-09-07T20:29:56.347Z,1.90
2022-09-07T20:32:24.562Z,1.67
2022-09-07T20:34:52.235Z,3.42
2022-09-07T20:37:19.902Z,2.22
2022-09-07T20:39:48.811Z,2.63
2022-09-07T20:42:16.643Z,2.05
2022-09-07T20:44:44.332Z,2.95
2022-09-07T20:47:11.931Z,2.33
2022-09-07T20:49:39.728Z,3.38
2022-09-07T20:52:07.424Z,1.73
2022-09-07T20:54:35.126Z,3.22
2022-09-07T20:57:04.112Z,2.45
2022-09-07T20:59:31.963Z,3.15
2022-09-07T21:01:59.546Z,2.28
2022-09-07T21:04:27.582Z,2.67
2022-09-07T21:06:55.046Z,2.63
2022-09-07T21:09:22.539Z,3.42
2022-09-07T21:11:52.174Z,3.60
2022-09-07T21:14:22.686Z,3.42
2022-09-07T21:16:50.425Z,2.85
2022-09-07T21:19:18.164Z,2.40
2022-09-07T21:21:45.999Z,4.32
2022-09-07T21:24:19.145Z,2.45
2022-09-07T21:26:48.004Z,3.17
2022-09-07T21:29:23.842Z,2.40
2022-09-07T21:31:55.234Z,3.80
2022-09-07T21:34:23.326Z,3.15
2022-09-07T21:36:51.300Z,2.40
2022-09-07T21:39:19.325Z,2.58
2022-09-07T21:41:47.351Z,3.22
2022-09-07T21:44:16.218Z,4.77
2022-09-07T21:46:44.356Z,1.83
2022-09-07T21:49:12.306Z,2.33
2022-09-07T21:51:39.963Z,3.42
2022-09-07T21:54:07.952Z,2.70
2022-09-07T21:56:35.715Z,3.22
2022-09-07T21:59:04.194Z,2.72
2022-09-07T22:01:32.326Z,3.28
2022-09-07T22:04:04.479Z,2.95
2022-09-07T22:06:32.583Z,3.70
2022-09-07T22:09:01.554Z,1.75
2022-09-07T22:13:59.624Z,2.05
2022-09-07T22:16:27.351Z,3.47
2022-09-07T22:18:55.194Z,2.42
2022-09-07T22:21:24.869Z,3.05
2022-09-07T22:23:56.698Z,2.72
2022-09-07T22:26:27.283Z,1.67
2022-09-07T22:28:55.340Z,3.00
2022-09-07T22:31:26.036Z,2.00
2022-09-07T22:33:55.162Z,1.73
2022-09-07T22:38:57.757Z,2.45
2022-09-07T22:41:33.526Z,2.10
2022-09-07T22:44:01.598Z,1.98
2022-09-07T22:46:31.458Z,3.93
2022-09-07T22:48:59.088Z,2.25
2022-09-07T22:51:27.409Z,1.48
2022-09-07T22:53:56.034Z,2.17
2022-09-07T22:56:27.490Z,3.75
2022-09-07T22:58:58.429Z,1.98
2022-09-07T23:01:27.128Z,1.00
2022-09-07T23:03:55.655Z,3.28
2022-09-07T23:06:25.863Z,1.63
2022-09-07T23:08:54.879Z,1.63
2022-09-07T23:16:21.312Z,3.63
2022-09-07T23:18:49.164Z,2.10
2022-09-07T23:21:17.068Z,3.42
2022-09-07T23:23:49.138Z,1.20
2022-09-07T23:26:16.570Z,3.15
2022-09-07T23:28:44.036Z,2.42
2022-09-07T23:31:11.678Z,1.67
2022-09-07T23:33:39.203Z,2.45
2022-09-07T23:36:08.015Z,1.75
2022-09-07T23:38:36.159Z,2.58
2022-09-07T23:41:03.952Z,2.00
2022-09-07T23:43:31.511Z,3.50
2022-09-07T23:46:00.184Z,2.53
2022-09-07T23:48:29.279Z,1.83
2022-09-07T23:50:56.902Z,2.10
2022-09-07T23:53:24.875Z,2.20
2022-09-07T23:55:53.184Z,1.67
2022-09-07T23:58:22.313Z,2.35
